TimeCDT,TemperatureF,Dew PointF,Humidity,Sea Level PressureIn,VisibilityMPH,Wind Direction,Wind SpeedMPH,Gust SpeedMPH,PrecipitationIn,Events,Conditions,WindDirDegrees,DateUTC
12:54 AM,66.9,54.0,63,29.88,10.0,South,15.0,25.3,N/A,,Clear,170,2013-09-28 05:54:00
1:54 AM,66.0,54.0,65,29.87,10.0,SSE,16.1,21.9,N/A,,Clear,160,2013-09-28 06:54:00
2:54 AM,66.0,54.0,65,29.86,10.0,South,16.1,25.3,N/A,,Clear,170,2013-09-28 07:54:00
3:54 AM,64.9,53.1,65,29.83,10.0,South,16.1,26.5,N/A,,Clear,170,2013-09-28 08:54:00
4:54 AM,64.9,54.0,68,29.83,10.0,South,16.1,25.3,N/A,,Mostly Cloudy,170,2013-09-28 09:54:00
5:54 AM,64.0,54.0,70,29.82,10.0,South,16.1,26.5,N/A,,Clear,170,2013-09-28 10:54:00
6:54 AM,63.0,55.0,75,29.81,10.0,SSE,17.3,26.5,N/A,,Clear,160,2013-09-28 11:54:00
7:54 AM,64.9,55.9,73,29.79,9.0,SSE,19.6,29.9,N/A,,Partly Cloudy,160,2013-09-28 12:54:00
8:54 AM,66.9,57.0,70,29.75,9.0,South,18.4,31.1,N/A,,Clear,170,2013-09-28 13:54:00
9:54 AM,69.1,59.0,70,29.74,9.0,South,21.9,29.9,N/A,,Scattered Clouds,170,2013-09-28 14:54:00
10:21 AM,69.8,59.0,68,29.75,9.0,South,25.3,38.0,N/A,,Mostly Cloudy,180,2013-09-28 15:21:00
10:54 AM,68.0,59.0,73,29.75,8.0,South,23.0,35.7,N/A,,Overcast,170,2013-09-28 15:54:00
11:54 AM,68.0,61.0,78,29.74,7.0,South,23.0,29.9,N/A,Rain,Light Rain,190,2013-09-28 16:54:00
12:54 PM,57.9,54.0,87,29.79,6.0,West,25.3,39.1,N/A,Rain,Rain,280,2013-09-28 17:54:00
1:00 PM,57.2,53.6,88,29.79,6.0,West,24.2,34.5,N/A,Rain,Rain,270,2013-09-28 18:00:00
1:18 PM,55.4,51.8,88,29.80,8.0,West,19.6,29.9,N/A,Rain,Light Rain,280,2013-09-28 18:18:00
1:45 PM,55.4,51.8,88,29.81,8.0,West,13.8,-,N/A,Rain,Light Rain,280,2013-09-28 18:45:00
1:54 PM,55.0,52.0,89,29.81,4.0,West,15.0,-,N/A,Rain,Rain,280,2013-09-28 18:54:00
2:02 PM,53.6,51.8,94,29.82,2.5,West,16.1,-,N/A,Rain,Heavy Rain,280,2013-09-28 19:02:00
2:15 PM,53.6,51.8,94,29.84,2.5,WNW,16.1,-,N/A,Rain,Light Rain,290,2013-09-28 19:15:00
2:20 PM,53.6,51.8,94,29.84,3.0,WNW,17.3,-,N/A,Rain,Rain,300,2013-09-28 19:20:00
2:33 PM,55.4,51.8,88,29.84,4.0,WNW,9.2,-,N/A,Rain,Heavy Rain,300,2013-09-28 19:33:00
2:43 PM,53.6,51.8,94,29.85,2.0,WNW,8.1,-,N/A,Rain,Heavy Rain,300,2013-09-28 19:43:00
2:54 PM,55.0,53.1,93,29.86,4.0,WNW,9.2,-,N/A,Rain,Rain,290,2013-09-28 19:54:00
3:01 PM,55.4,51.8,88,29.87,4.0,West,9.2,-,N/A,Rain,Rain,280,2013-09-28 20:01:00
3:17 PM,55.4,51.8,88,29.86,10.0,WNW,10.4,-,N/A,Rain,Light Rain,300,2013-09-28 20:17:00
3:44 PM,55.4,53.6,94,29.88,10.0,West,8.1,-,N/A,Rain,Light Rain,260,2013-09-28 20:44:00
3:54 PM,55.9,53.1,90,29.88,10.0,West,10.4,-,N/A,Rain,Light Rain,270,2013-09-28 20:54:00
4:54 PM,57.9,53.1,84,29.89,10.0,West,11.5,-,N/A,,Mostly Cloudy,280,2013-09-28 21:54:00
5:54 PM,59.0,52.0,78,29.90,10.0,West,9.2,-,N/A,,Scattered Clouds,270,2013-09-28 22:54:00
6:54 PM,55.0,50.0,83,29.93,10.0,West,6.9,-,N/A,,Clear,260,2013-09-28 23:54:00
7:54 PM,52.0,46.9,83,29.96,10.0,West,8.1,-,N/A,,Clear,280,2013-09-29 00:54:00
8:54 PM,50.0,46.0,86,29.98,10.0,West,6.9,-,N/A,,Clear,260,2013-09-29 01:54:00
9:54 PM,48.9,45.0,86,29.99,10.0,WSW,6.9,-,N/A,,Clear,250,2013-09-29 02:54:00
10:54 PM,48.0,44.1,86,30.00,10.0,SW,5.8,-,N/A,,Clear,230,2013-09-29 03:54:00
11:54 PM,46.9,43.0,86,30.00,10.0,Variable,5.8,-,N/A,,Clear,0,2013-09-29 04:54:00